Airfield :
LOGIN :

Register | Disclaimer

   EN    FR    IT 

 










Legend :    VFR   Marginal VFR   IFR   Intensive IFR   Very Intensive IFR
Visi :
Ceiling :
>= 8 km
>= 3000ft
5 to 8 km
1000 to 3000 ft
1500m to 5 km
500 to 1000 ft
800 to 1500m
200 to 500 ft
< 800m
< 200 ft
Symbols :   Thunderstorms  Fog  Heavy snow  Heavy precipitations  Wind > 20 kt
SIGMETs :     Misc.  Thunderstorms  Icing  Turbulence  Mountain Waves  Volcanic Ashes






- Airport Elevation : 622 ft
- IATA code : BRS


EGGD - Bristol Int.

CURRENT METAR :
  • 260120Z AUTO 27010KT 9999 BKN019 BKN023 02/M01 Q0999

EXPIRED METARs :
  • 260050Z AUTO 27017KT 9999 SCT019/// //////TCU 02/M01 Q0999
  • 260020Z AUTO 29011KT 9999 BKN022 02/M01 Q0999
  • 252350Z AUTO 28016KT 9999 SCT020 SCT024 02/M01 Q0999
  • 252320Z AUTO 28017G27KT 9999 BKN020 02/M01 Q0999
  • 252250Z AUTO 28018KT 9999 BKN021 BKN045 02/M01 Q0999

TAF TAF EGGD
Valid from the 26 at 00:00 until the 27 at 00:00 UTC


252302Z 2600/2624 28014KT 9999 SCT030
TEMPO 2600/2614 28018G28KT 3000 SHRASN BKN006
PROB30
TEMPO 2600/2610 27024G38KT 1200 +SHRASN SHSN BKN002 BKN020CB
BECMG 2618/2621 22006KT
PROB30 2622/2624 8000 -RA BKN008
ATIS : +44 1275 473 666



MET'MAP, your aeronautical weather chart ! - Copyright ORBIFLY December 2007 - Disclaimer

ORBIFLY MET'MAP TEAM :

Programming & Development : Alexandra Zaïnal
Concept & original design : Baudouin d'Aumeries
Assistance for programming : Marc-Olivier Méhu
Technical & hardware support : Manuel Goepfert

Contact : metmap@orbifly.com




SOURCES & CREDITS :

   NOAA